Time;durP1;ratioP1;P1;durP2;ratioP2;P2;SDS_P1;SDS_P2;PMS_P1;PMS_P2;Temp;Humidity;BMP_temperature;BMP_pressure;BME280_temperature;BME280_humidity;BME280_pressure;Samples;Min_cycle;Max_cycle;Signal;HPM_P1;HPM_P2
2022/11/06 00:01:11;;;;;;;7.50;3.65;;;8.00;99.90;;;;;;4989590;28;20037;-58
2022/11/06 00:03:37;;;;;;;10.70;3.63;;;7.90;99.90;;;;;;4998231;28;20105;-57
2022/11/06 00:08:55;;;;;;;9.77;3.22;;;8.00;99.90;;;;;;4999611;28;20033;-58
2022/11/06 00:11:20;;;;;;;9.25;3.40;;;8.00;99.90;;;;;;4994785;28;20096;-57
2022/11/06 00:13:46;;;;;;;12.98;3.67;;;7.90;99.90;;;;;;4994666;28;20453;-58
2022/11/06 00:16:13;;;;;;;16.25;3.58;;;7.90;99.90;;;;;;4989038;28;20041;-54
2022/11/06 00:18:40;;;;;;;12.18;3.75;;;7.90;99.90;;;;;;4990219;28;20585;-57
2022/11/06 00:21:10;;;;;;;9.50;3.25;;;7.90;99.90;;;;;;4987047;28;20046;-59
2022/11/06 00:23:37;;;;;;;16.45;3.33;;;7.80;99.90;;;;;;4991684;28;20088;-57
2022/11/06 00:26:07;;;;;;;6.55;2.70;;;7.70;99.90;;;;;;4990437;28;20509;-60
2022/11/06 00:28:33;;;;;;;6.20;2.92;;;7.70;99.90;;;;;;4981095;28;20113;-58
2022/11/06 00:31:04;;;;;;;9.38;3.38;;;7.70;99.90;;;;;;4984472;28;20368;-59
2022/11/06 00:33:30;;;;;;;11.07;3.80;;;7.70;99.90;;;;;;4990538;28;20432;-57
2022/11/06 00:35:55;;;;;;;10.52;3.60;;;7.60;99.90;;;;;;4992019;28;20113;-57
2022/11/06 00:38:21;;;;;;;6.38;3.85;;;7.60;99.90;;;;;;4999426;28;20068;-58
2022/11/06 00:40:46;;;;;;;10.85;2.80;;;7.50;99.90;;;;;;4993306;28;20385;-57
2022/11/06 00:43:12;;;;;;;12.38;4.18;;;7.60;99.90;;;;;;4994089;28;20045;-58
2022/11/06 00:45:37;;;;;;;7.85;3.53;;;7.50;99.90;;;;;;4991634;28;20061;-56
2022/11/06 00:48:03;;;;;;;8.18;2.67;;;7.50;99.90;;;;;;4989286;28;20041;-58
2022/11/06 00:50:29;;;;;;;9.23;5.13;;;7.40;99.90;;;;;;4990994;28;20023;-57
2022/11/06 00:52:54;;;;;;;16.90;3.83;;;7.40;99.90;;;;;;4985367;28;20427;-57
2022/11/06 00:55:20;;;;;;;12.70;4.97;;;7.40;99.90;;;;;;4990738;28;20492;-57
2022/11/06 00:57:46;;;;;;;12.48;4.00;;;7.40;99.90;;;;;;4993367;28;20026;-56
2022/11/06 01:00:12;;;;;;;10.20;3.72;;;7.30;99.90;;;;;;4991433;28;20031;-55
2022/11/06 01:02:38;;;;;;;7.47;3.85;;;7.40;99.90;;;;;;4988602;28;20050;-55
2022/11/06 01:05:04;;;;;;;13.15;4.32;;;7.40;99.90;;;;;;4991490;28;20511;-57
2022/11/06 01:07:30;;;;;;;10.57;4.05;;;7.30;99.90;;;;;;4989224;28;20049;-56
2022/11/06 01:09:55;;;;;;;8.32;4.15;;;7.20;99.90;;;;;;4986644;28;20030;-57
2022/11/06 01:12:21;;;;;;;7.85;4.30;;;7.20;99.90;;;;;;4987274;28;20457;-57
2022/11/06 01:14:46;;;;;;;16.05;6.03;;;7.20;99.90;;;;;;4990180;28;20022;-59
2022/11/06 01:17:12;;;;;;;8.18;4.47;;;7.20;99.90;;;;;;4987840;28;20485;-57
2022/11/06 01:19:38;;;;;;;10.32;4.20;;;7.20;99.90;;;;;;4990942;28;20037;-57
2022/11/06 01:22:03;;;;;;;12.85;4.80;;;7.10;99.90;;;;;;4983547;28;20369;-56
2022/11/06 01:24:29;;;;;;;11.55;4.30;;;7.10;99.90;;;;;;4981558;28;20027;-57
2022/11/06 01:26:55;;;;;;;15.63;4.28;;;7.10;99.90;;;;;;4989122;28;20552;-56
2022/11/06 01:29:21;;;;;;;11.35;4.65;;;7.10;99.90;;;;;;4978987;28;20030;-56
2022/11/06 01:31:50;;;;;;;10.55;4.50;;;7.00;99.90;;;;;;4988075;28;20022;-57
2022/11/06 01:34:17;;;;;;;9.70;4.40;;;7.00;99.90;;;;;;4992813;28;20081;-59
2022/11/06 01:36:43;;;;;;;12.98;4.72;;;7.00;99.90;;;;;;4994682;28;20025;-59
2022/11/06 01:39:11;;;;;;;9.68;3.78;;;7.00;99.90;;;;;;4994527;28;20030;-58
2022/11/06 01:41:40;;;;;;;11.48;4.25;;;6.90;99.90;;;;;;4994051;28;20033;-58
2022/11/06 01:44:32;;;;;;;13.15;4.65;;;6.90;99.90;;;;;;4993760;28;20492;-57
2022/11/06 01:46:58;;;;;;;9.82;4.22;;;7.00;99.90;;;;;;4994046;28;20033;-57
2022/11/06 01:49:25;;;;;;;10.73;3.88;;;7.00;99.90;;;;;;4993757;28;20077;-57
2022/11/06 01:51:57;;;;;;;9.50;3.47;;;7.00;99.90;;;;;;4994994;28;20019;-57
2022/11/06 01:54:26;;;;;;;7.70;3.88;;;7.00;99.90;;;;;;4992449;28;20062;-57
2022/11/06 01:56:54;;;;;;;9.15;3.25;;;7.00;99.90;;;;;;4999288;28;20516;-57
2022/11/06 01:59:26;;;;;;;6.07;2.95;;;7.00;99.90;;;;;;4992001;28;20030;-56
2022/11/06 02:01:52;;;;;;;10.93;3.58;;;7.00;99.90;;;;;;4995232;28;20037;-56
2022/11/06 02:04:24;;;;;;;7.45;3.53;;;6.90;99.90;;;;;;4996428;28;20488;-57
2022/11/06 02:06:50;;;;;;;12.20;2.75;;;7.00;99.90;;;;;;4996446;28;20030;-57
2022/11/06 02:09:17;;;;;;;12.15;2.13;;;7.00;99.90;;;;;;4999015;28;20026;-58
2022/11/06 02:11:46;;;;;;;8.50;2.90;;;7.00;99.90;;;;;;5004245;28;20439;-55
2022/11/06 02:14:38;;;;;;;11.40;3.30;;;7.00;99.90;;;;;;4991056;28;20057;-57
2022/11/06 02:17:14;;;;;;;13.45;3.03;;;7.00;99.90;;;;;;4991893;28;20497;-55
2022/11/06 02:19:45;;;;;;;13.02;3.90;;;7.00;99.90;;;;;;4991569;28;20022;-58
2022/11/06 02:22:45;;;;;;;10.50;2.92;;;6.90;99.90;;;;;;4997573;28;20022;-57
2022/11/06 02:25:31;;;;;;;13.45;3.38;;;6.90;99.90;;;;;;4989519;28;20034;-55
2022/11/06 02:28:02;;;;;;;7.40;2.92;;;6.90;99.90;;;;;;4999020;28;20057;-57
2022/11/06 02:30:32;;;;;;;8.25;3.25;;;7.00;99.90;;;;;;4993361;28;20030;-56
2022/11/06 02:33:02;;;;;;;18.98;4.00;;;7.00;99.90;;;;;;4992997;28;20030;-58
2022/11/06 02:35:36;;;;;;;7.65;3.15;;;7.00;99.90;;;;;;4999833;28;20030;-57
2022/11/06 02:38:07;;;;;;;;;;;7.00;99.90;;;;;;4991524;28;20121;-58
2022/11/06 02:40:36;;;;;;;11.63;3.08;;;7.00;99.90;;;;;;5000475;28;20303;-57
2022/11/06 02:43:06;;;;;;;13.63;3.25;;;7.00;99.90;;;;;;4994789;28;20034;-58
2022/11/06 02:45:39;;;;;;;9.02;2.47;;;7.10;99.90;;;;;;4985029;28;20166;-54
2022/11/06 02:48:08;;;;;;;8.13;3.13;;;7.10;99.90;;;;;;4991382;28;20033;-54
2022/11/06 02:50:39;;;;;;;7.03;3.10;;;7.10;99.90;;;;;;4991623;28;20023;-53
2022/11/06 02:53:07;;;;;;;11.65;2.70;;;7.00;99.90;;;;;;4993328;28;20617;-59
2022/11/06 02:55:37;;;;;;;8.18;3.00;;;7.00;99.90;;;;;;4996166;28;20454;-59
2022/11/06 02:58:11;;;;;;;33.13;3.17;;;7.00;99.90;;;;;;4992243;28;20065;-57
2022/11/06 03:00:40;;;;;;;10.68;2.90;;;7.00;99.90;;;;;;4991792;28;20045;-58
2022/11/06 03:03:24;;;;;;;17.80;3.58;;;6.90;99.90;;;;;;4996264;28;20054;-58
2022/11/06 03:06:06;;;;;;;8.95;3.38;;;6.90;99.90;;;;;;4993017;28;20030;-57
2022/11/06 03:08:53;;;;;;;11.85;2.80;;;6.90;99.90;;;;;;4992252;28;20018;-57
2022/11/06 03:11:29;;;;;;;8.40;2.50;;;6.90;99.90;;;;;;4987488;28;20034;-57
2022/11/06 03:14:01;;;;;;;9.27;2.97;;;6.90;99.90;;;;;;4991450;28;20026;-58
2022/11/06 03:16:34;;;;;;;8.57;2.88;;;6.90;99.90;;;;;;4993649;28;20072;-57
2022/11/06 03:19:25;;;;;;;11.60;4.40;;;6.90;99.90;;;;;;4999750;28;20114;-57
2022/11/06 03:22:09;;;;;;;9.38;2.70;;;7.00;99.90;;;;;;4989382;28;20522;-57
2022/11/06 03:24:44;;;;;;;7.53;2.83;;;7.00;99.90;;;;;;4990019;28;20076;-56
2022/11/06 03:27:17;;;;;;;5.03;2.88;;;7.00;99.90;;;;;;4991021;28;20042;-56
2022/11/06 03:29:48;;;;;;;3.78;2.13;;;7.10;99.90;;;;;;4992520;28;20027;-58
2022/11/06 03:32:19;;;;;;;21.00;3.60;;;7.10;99.90;;;;;;4991758;28;20037;-56
2022/11/06 03:34:58;;;;;;;16.17;2.80;;;7.00;99.90;;;;;;4992752;28;20193;-58
2022/11/06 03:37:32;;;;;;;9.82;2.63;;;7.10;99.90;;;;;;5000191;28;20033;-58
2022/11/06 03:40:01;;;;;;;8.23;3.05;;;7.00;99.90;;;;;;4991670;28;20093;-55
2022/11/06 03:42:29;;;;;;;4.35;2.50;;;7.10;99.90;;;;;;5013365;22;20592;-60
2022/11/06 03:45:04;;;;;;;5.95;3.15;;;7.10;99.90;;;;;;5008888;28;20034;-60
2022/11/06 03:47:43;;;;;;;9.95;2.40;;;7.10;99.90;;;;;;5016865;28;20476;-56
2022/11/06 03:50:16;;;;;;;12.82;2.42;;;7.10;99.90;;;;;;5010184;28;20022;-59
2022/11/06 03:52:53;;;;;;;7.10;2.25;;;7.10;99.90;;;;;;5005787;28;20088;-58
2022/11/06 03:55:24;;;;;;;7.68;2.35;;;7.10;99.90;;;;;;4991899;28;20034;-59
2022/11/06 03:57:50;;;;;;;11.00;2.85;;;7.00;99.90;;;;;;4995601;28;20464;-59
2022/11/06 04:00:19;;;;;;;10.70;2.10;;;7.00;99.90;;;;;;4989979;28;20030;-57
2022/11/06 04:02:50;;;;;;;13.80;3.75;;;6.90;99.90;;;;;;5002139;28;20033;-58
2022/11/06 04:05:22;;;;;;;5.95;2.33;;;6.90;99.90;;;;;;4994653;28;20105;-57
2022/11/06 04:16:11;;;;;;;17.10;2.30;;;6.90;99.90;;;;;;4992994;28;20410;-55
2022/11/06 04:18:36;;;;;;;5.63;2.33;;;6.80;99.90;;;;;;4996274;28;20035;-55
2022/11/06 04:21:25;;;;;;;12.57;2.28;;;6.70;99.90;;;;;;4995783;28;20030;-59
2022/11/06 04:27:03;;;;;;;8.45;2.30;;;6.70;99.90;;;;;;4992822;28;20048;-60
2022/11/06 04:29:56;;;;;;;6.30;2.15;;;6.80;99.90;;;;;;4995299;28;20022;-58
2022/11/06 04:32:34;;;;;;;11.02;2.53;;;6.80;99.90;;;;;;4990195;28;20029;-59
2022/11/06 04:35:11;;;;;;;9.02;2.63;;;6.80;99.90;;;;;;4995634;28;20049;-58
2022/11/06 04:37:39;;;;;;;8.38;2.70;;;6.80;99.90;;;;;;5001332;28;20054;-57
2022/11/06 04:40:12;;;;;;;3.92;2.17;;;6.80;99.90;;;;;;4989461;28;20027;-57
2022/11/06 04:43:15;;;;;;;10.13;3.38;;;6.80;99.90;;;;;;4975433;28;20606;-58
2022/11/06 04:45:45;;;;;;;6.60;2.83;;;6.90;99.90;;;;;;4987559;28;20121;-58
2022/11/06 04:48:11;;;;;;;7.97;2.63;;;7.00;99.90;;;;;;4980657;28;20022;-59
2022/11/06 04:50:47;;;;;;;13.25;2.65;;;7.10;99.90;;;;;;4997895;28;20080;-58
2022/11/06 04:53:13;;;;;;;11.23;2.05;;;7.10;99.90;;;;;;4978592;28;20407;-54
2022/11/06 04:55:52;;;;;;;7.30;2.15;;;7.20;99.90;;;;;;4997800;28;20026;-57
2022/11/06 04:58:18;;;;;;;6.05;1.83;;;7.20;99.90;;;;;;4993249;28;20109;-55
2022/11/06 05:00:49;;;;;;;9.93;2.13;;;7.20;99.90;;;;;;4978841;28;20161;-58
2022/11/06 05:03:15;;;;;;;10.88;2.58;;;7.20;99.90;;;;;;4995154;28;20064;-55
2022/11/06 05:05:42;;;;;;;8.02;3.15;;;7.20;99.90;;;;;;4997545;28;20058;-57
2022/11/06 05:08:14;;;;;;;11.85;2.53;;;7.30;99.90;;;;;;4991969;28;20030;-55
2022/11/06 05:10:40;;;;;;;10.38;2.53;;;7.20;99.90;;;;;;4995044;28;20113;-57
2022/11/06 05:13:05;;;;;;;7.50;3.30;;;7.20;99.90;;;;;;4994419;28;20046;-54
2022/11/06 05:15:31;;;;;;;6.20;2.63;;;7.20;99.90;;;;;;4973206;28;20030;-56
2022/11/06 05:17:57;;;;;;;8.25;2.30;;;7.20;99.90;;;;;;4990935;28;20400;-54
2022/11/06 05:20:23;;;;;;;8.00;2.35;;;7.20;99.90;;;;;;4989336;28;20046;-59
2022/11/06 05:22:59;;;;;;;6.78;2.88;;;7.10;99.90;;;;;;4997254;28;20172;-59
2022/11/06 05:25:37;;;;;;;6.88;2.40;;;7.10;99.90;;;;;;4996286;28;20396;-57
2022/11/06 05:28:05;;;;;;;9.68;2.45;;;7.00;99.90;;;;;;4991848;28;20022;-59
2022/11/06 05:30:33;;;;;;;7.72;2.28;;;7.00;99.90;;;;;;4995607;28;20029;-56
2022/11/06 05:32:58;;;;;;;10.43;2.30;;;7.00;99.90;;;;;;4970933;28;20074;-56
2022/11/06 05:35:24;;;;;;;7.38;1.73;;;7.10;99.90;;;;;;4993412;28;20485;-56
2022/11/06 05:37:50;;;;;;;6.05;2.45;;;7.10;99.90;;;;;;4992460;28;20030;-57
2022/11/06 05:40:15;;;;;;;3.50;2.42;;;7.10;99.90;;;;;;4988178;28;20100;-59
2022/11/06 05:42:42;;;;;;;16.77;3.15;;;7.10;99.90;;;;;;4986046;28;20069;-54
2022/11/06 05:45:09;;;;;;;6.93;2.35;;;7.00;99.90;;;;;;4983939;28;20041;-54
2022/11/06 05:47:38;;;;;;;9.98;2.67;;;7.00;99.90;;;;;;4987356;28;20113;-54
2022/11/06 05:50:04;;;;;;;6.15;2.42;;;7.00;99.90;;;;;;4999384;28;20033;-56
2022/11/06 05:52:29;;;;;;;12.57;2.55;;;7.00;99.90;;;;;;4988763;28;20018;-55
2022/11/06 05:54:55;;;;;;;9.20;2.53;;;7.00;99.90;;;;;;4993771;28;20491;-59
2022/11/06 05:57:21;;;;;;;6.20;1.98;;;7.00;99.90;;;;;;4995836;28;20147;-56
2022/11/06 05:59:46;;;;;;;8.45;2.72;;;7.00;99.90;;;;;;4995751;28;20492;-57
2022/11/06 06:02:12;;;;;;;13.35;3.42;;;7.00;99.90;;;;;;4993088;28;20034;-58
2022/11/06 06:04:37;;;;;;;15.65;2.83;;;7.00;99.90;;;;;;4997465;28;20032;-57
2022/11/06 06:07:03;;;;;;;3.42;2.10;;;7.10;99.90;;;;;;4990021;28;20105;-57
2022/11/06 06:09:28;;;;;;;6.20;2.72;;;7.10;99.90;;;;;;4988719;28;20399;-55
2022/11/06 06:11:54;;;;;;;8.10;2.53;;;7.00;99.90;;;;;;4991884;28;20488;-56
2022/11/06 06:14:20;;;;;;;5.30;2.17;;;7.00;99.90;;;;;;4993125;28;20034;-55
2022/11/06 06:16:46;;;;;;;9.95;2.97;;;7.00;99.90;;;;;;4998627;28;22067;-58
2022/11/06 06:19:11;;;;;;;11.75;2.42;;;7.10;99.90;;;;;;4991285;28;20022;-56
2022/11/06 06:21:37;;;;;;;9.25;2.50;;;7.00;99.90;;;;;;4992276;28;20026;-59
2022/11/06 06:24:04;;;;;;;22.70;3.47;;;7.00;99.90;;;;;;4996757;28;20030;-57
2022/11/06 06:26:30;;;;;;;5.25;2.20;;;7.00;99.90;;;;;;4995557;28;20030;-55
2022/11/06 06:28:55;;;;;;;2.90;1.88;;;7.00;99.90;;;;;;4997189;28;20045;-58
2022/11/06 06:31:21;;;;;;;12.88;2.38;;;7.00;99.90;;;;;;4997354;28;20766;-54
2022/11/06 06:33:47;;;;;;;5.70;2.15;;;7.00;99.90;;;;;;5001770;28;20041;-52
2022/11/06 06:36:12;;;;;;;15.02;3.08;;;6.90;99.90;;;;;;4995376;28;20395;-57
2022/11/06 06:38:38;;;;;;;6.45;2.53;;;6.90;99.90;;;;;;4994026;28;20045;-56
2022/11/06 06:41:05;;;;;;;5.40;2.10;;;6.90;99.90;;;;;;5001045;28;20104;-56
2022/11/06 06:43:31;;;;;;;12.45;2.20;;;6.80;99.90;;;;;;5000676;28;20057;-56
2022/11/06 06:46:03;;;;;;;8.82;2.33;;;6.70;99.90;;;;;;4995268;28;20489;-55
2022/11/06 06:48:29;;;;;;;5.50;1.90;;;6.70;99.90;;;;;;4996441;28;20409;-57
2022/11/06 06:50:59;;;;;;;8.88;2.33;;;6.60;99.90;;;;;;4996104;28;20025;-57
2022/11/06 06:53:25;;;;;;;9.77;2.47;;;6.60;99.90;;;;;;4996480;28;20403;-57
2022/11/06 06:55:50;;;;;;;6.65;2.85;;;6.60;99.90;;;;;;5001896;28;20030;-56
2022/11/06 06:58:16;;;;;;;10.38;2.80;;;6.60;99.90;;;;;;4996911;28;20627;-56
2022/11/06 07:00:41;;;;;;;8.82;2.90;;;6.60;99.90;;;;;;4994928;28;20026;-56
2022/11/06 07:03:08;;;;;;;12.90;2.60;;;6.60;99.90;;;;;;5006712;28;20038;-58
2022/11/06 07:05:33;;;;;;;5.30;2.50;;;6.60;99.90;;;;;;5001559;28;20026;-53
2022/11/06 07:07:59;;;;;;;10.02;2.83;;;6.60;99.90;;;;;;4993410;28;20085;-58
2022/11/06 07:10:24;;;;;;;12.40;3.15;;;6.60;99.90;;;;;;4991151;28;20034;-56
2022/11/06 07:12:50;;;;;;;8.27;2.35;;;6.60;99.90;;;;;;4971458;28;20101;-59
2022/11/06 07:15:15;;;;;;;7.53;2.22;;;6.70;99.90;;;;;;4994825;28;20036;-56
2022/11/06 07:17:41;;;;;;;8.38;2.28;;;6.70;99.90;;;;;;4991465;28;20100;-54
2022/11/06 07:20:08;;;;;;;3.45;2.10;;;6.70;99.90;;;;;;4994346;28;20129;-57
2022/11/06 07:22:34;;;;;;;5.03;2.58;;;6.80;99.90;;;;;;4997382;28;20023;-57
2022/11/06 07:24:59;;;;;;;6.90;2.65;;;6.90;99.90;;;;;;4996235;28;20511;-57
2022/11/06 07:27:25;;;;;;;9.18;2.28;;;6.90;99.90;;;;;;5006304;28;20030;-57
2022/11/06 07:29:51;;;;;;;14.57;2.53;;;7.00;99.90;;;;;;5002743;28;20442;-55
2022/11/06 07:32:16;;;;;;;4.78;2.20;;;7.00;99.90;;;;;;4976062;28;20076;-56
2022/11/06 07:34:42;;;;;;;9.85;2.63;;;7.10;99.90;;;;;;4991266;28;20026;-56
2022/11/06 07:37:07;;;;;;;8.07;3.17;;;7.10;99.90;;;;;;5000465;28;20026;-58
2022/11/06 07:39:33;;;;;;;9.85;3.13;;;7.20;99.90;;;;;;4992566;28;20042;-57
2022/11/06 07:41:59;;;;;;;9.25;2.75;;;7.30;99.90;;;;;;5001233;28;20507;-57
2022/11/06 07:44:25;;;;;;;12.55;3.13;;;7.40;99.90;;;;;;4999775;28;20127;-57
2022/11/06 07:46:50;;;;;;;8.20;2.75;;;7.50;99.90;;;;;;4990867;28;20102;-60
2022/11/06 07:49:16;;;;;;;12.73;3.08;;;7.60;99.90;;;;;;4994755;28;20583;-57
2022/11/06 07:51:43;;;;;;;6.75;3.85;;;7.70;99.90;;;;;;5000107;28;20018;-56
2022/11/06 07:54:10;;;;;;;8.18;2.30;;;7.80;99.90;;;;;;4991907;28;20030;-57
2022/11/06 07:56:36;;;;;;;8.15;2.53;;;7.90;99.90;;;;;;4989334;28;20089;-56
2022/11/06 07:59:01;;;;;;;7.50;2.75;;;8.00;99.90;;;;;;4998609;28;20038;-55
2022/11/06 08:01:27;;;;;;;10.45;2.50;;;8.20;99.90;;;;;;4997612;28;20030;-56
2022/11/06 08:03:52;;;;;;;9.68;2.13;;;8.30;99.90;;;;;;4995367;28;20022;-58
2022/11/06 08:06:18;;;;;;;10.63;2.47;;;8.30;99.90;;;;;;4995706;28;20112;-59
2022/11/06 08:08:43;;;;;;;12.70;2.63;;;8.40;99.90;;;;;;4998128;28;20026;-57
2022/11/06 08:11:10;;;;;;;5.13;2.25;;;8.50;99.90;;;;;;4999559;28;20037;-58
2022/11/06 08:13:36;;;;;;;11.88;3.17;;;8.50;99.90;;;;;;4999259;28;20033;-55
2022/11/06 08:16:04;;;;;;;10.55;3.58;;;8.50;99.90;;;;;;4994292;28;20033;-57
2022/11/06 08:18:29;;;;;;;10.65;3.00;;;8.50;99.90;;;;;;4998348;28;20025;-56
2022/11/06 08:20:55;;;;;;;5.07;2.40;;;8.60;99.90;;;;;;4999221;28;20130;-55
2022/11/06 08:23:20;;;;;;;5.35;2.80;;;8.60;99.90;;;;;;4985449;28;20060;-58
2022/11/06 08:25:46;;;;;;;13.23;2.92;;;8.70;99.90;;;;;;4988988;28;20775;-56
2022/11/06 08:28:11;;;;;;;9.07;3.17;;;8.80;99.90;;;;;;4996092;28;20121;-57
2022/11/06 08:30:37;;;;;;;9.73;2.75;;;8.90;99.90;;;;;;4989686;28;20022;-56
2022/11/06 08:33:05;;;;;;;8.77;2.60;;;9.00;99.90;;;;;;4985773;28;20563;-57
2022/11/06 08:35:32;;;;;;;12.80;2.83;;;9.10;99.90;;;;;;4987100;28;20492;-58
2022/11/06 08:37:58;;;;;;;4.07;2.42;;;9.30;99.90;;;;;;4986973;28;20030;-56
2022/11/06 08:40:23;;;;;;;10.50;2.72;;;9.40;99.90;;;;;;4984697;28;20042;-57
2022/11/06 08:42:49;;;;;;;10.63;3.00;;;9.50;99.90;;;;;;4995748;28;20065;-60
2022/11/06 08:45:14;;;;;;;15.57;2.90;;;9.50;99.90;;;;;;4991675;28;20060;-58
2022/11/06 08:47:40;;;;;;;11.82;2.92;;;9.60;99.90;;;;;;4991986;28;20161;-57
2022/11/06 08:50:06;;;;;;;8.82;2.80;;;9.60;99.90;;;;;;4987866;28;20077;-58
2022/11/06 08:52:31;;;;;;;6.05;2.45;;;9.70;99.90;;;;;;4990136;28;20505;-54
2022/11/06 08:54:57;;;;;;;8.23;2.72;;;9.70;99.90;;;;;;4986810;28;20116;-57
2022/11/06 08:57:23;;;;;;;5.38;2.30;;;9.80;99.90;;;;;;4984788;28;20041;-57
2022/11/06 08:59:48;;;;;;;7.45;2.67;;;9.90;99.90;;;;;;4985792;28;20034;-54
2022/11/06 09:02:14;;;;;;;10.38;2.90;;;10.00;99.90;;;;;;4988211;28;20022;-56
2022/11/06 09:04:40;;;;;;;15.93;2.35;;;10.10;99.90;;;;;;4989004;28;20042;-59
2022/11/06 09:07:06;;;;;;;11.45;3.13;;;10.10;99.90;;;;;;4984474;28;20022;-58
2022/11/06 09:09:32;;;;;;;9.32;3.00;;;10.20;99.90;;;;;;4990257;28;20018;-58
2022/11/06 09:12:01;;;;;;;6.45;2.15;;;10.30;99.90;;;;;;4985444;28;20492;-56
2022/11/06 09:14:27;;;;;;;10.43;2.25;;;10.40;99.90;;;;;;4987475;28;20511;-57
2022/11/06 09:16:53;;;;;;;8.32;2.50;;;10.50;99.90;;;;;;4993053;28;20031;-57
2022/11/06 09:19:19;;;;;;;8.77;2.67;;;10.70;99.90;;;;;;4991407;28;20037;-58
2022/11/06 09:21:45;;;;;;;12.45;2.90;;;10.80;99.90;;;;;;4990355;28;20023;-57
2022/11/06 09:24:10;;;;;;;11.73;3.13;;;10.90;99.90;;;;;;4987771;28;20049;-58
2022/11/06 09:26:36;;;;;;;19.23;5.45;;;11.00;99.90;;;;;;4990652;28;20069;-57
2022/11/06 09:29:02;;;;;;;11.00;2.90;;;11.00;99.90;;;;;;4994587;28;20027;-58
2022/11/06 09:31:28;;;;;;;13.80;3.20;;;11.10;99.90;;;;;;4992034;28;20046;-59
2022/11/06 09:33:54;;;;;;;8.90;2.60;;;11.10;99.90;;;;;;4991581;28;20076;-58
2022/11/06 09:36:20;;;;;;;11.90;2.58;;;11.10;99.90;;;;;;4986636;28;20531;-57
2022/11/06 09:38:46;;;;;;;8.27;2.55;;;11.00;99.90;;;;;;4991451;28;20030;-58
2022/11/06 09:41:19;;;;;;;7.82;2.03;;;11.00;99.90;;;;;;4989294;28;20030;-58
2022/11/06 09:43:54;;;;;;;7.10;3.20;;;11.00;99.90;;;;;;4986361;28;20635;-59
2022/11/06 09:46:19;;;;;;;9.50;2.75;;;11.10;99.90;;;;;;5012545;23;20378;-53
2022/11/06 09:48:49;;;;;;;10.82;2.88;;;11.20;99.90;;;;;;4991697;28;20042;-54
2022/11/06 09:51:21;;;;;;;6.53;2.13;;;11.20;99.90;;;;;;4985880;28;20046;-55
2022/11/06 09:53:54;;;;;;;5.03;2.72;;;11.20;99.90;;;;;;4987616;28;20035;-53
2022/11/06 09:56:24;;;;;;;8.32;2.92;;;11.20;99.90;;;;;;4989542;28;20927;-55
2022/11/06 09:58:51;;;;;;;14.02;2.83;;;11.20;99.90;;;;;;4989559;28;20081;-53
2022/11/06 10:01:21;;;;;;;7.78;2.30;;;11.30;99.90;;;;;;4984871;28;20027;-52
2022/11/06 10:03:58;;;;;;;6.47;2.60;;;11.30;99.90;;;;;;4987948;28;20029;-54
2022/11/06 10:06:26;;;;;;;12.20;2.67;;;11.40;99.90;;;;;;4989393;28;20459;-52
2022/11/06 10:08:55;;;;;;;14.10;2.80;;;11.60;99.90;;;;;;4991768;28;20445;-51
2022/11/06 10:11:50;;;;;;;6.90;2.50;;;11.60;99.90;;;;;;4990990;28;20048;-54
2022/11/06 10:14:41;;;;;;;7.10;3.38;;;11.60;99.90;;;;;;4971111;28;20119;-53
2022/11/06 10:17:42;;;;;;;12.68;3.67;;;11.60;99.90;;;;;;4990507;28;20031;-52
2022/11/06 10:20:19;;;;;;;9.73;3.45;;;11.70;99.90;;;;;;4953700;28;20049;-56
2022/11/06 10:23:01;;;;;;;8.50;2.63;;;11.70;99.90;;;;;;4986803;28;20106;-52
2022/11/06 10:25:50;;;;;;;8.73;3.15;;;11.70;99.90;;;;;;4984391;28;20037;-55
2022/11/06 10:28:50;;;;;;;11.73;3.17;;;11.90;99.90;;;;;;4996179;28;20105;-52
2022/11/06 10:31:30;;;;;;;6.22;2.58;;;11.90;99.90;;;;;;4979957;28;20089;-51
2022/11/06 10:34:06;;;;;;;8.82;2.78;;;12.00;99.90;;;;;;4986282;28;20028;-57
2022/11/06 10:36:47;;;;;;;5.53;2.50;;;12.10;99.90;;;;;;4988569;28;20037;-53
2022/11/06 10:39:19;;;;;;;5.35;2.58;;;12.10;99.90;;;;;;4983710;28;20034;-56
2022/11/06 10:41:49;;;;;;;8.75;3.30;;;12.10;99.90;;;;;;4984938;28;20105;-52
2022/11/06 10:44:30;;;;;;;7.60;2.67;;;12.10;99.90;;;;;;4990656;28;20033;-57
2022/11/06 10:47:09;;;;;;;10.80;2.85;;;12.10;99.90;;;;;;4986051;28;20037;-54
2022/11/06 10:49:46;;;;;;;7.80;2.33;;;12.00;99.90;;;;;;4991439;28;20022;-55
2022/11/06 10:52:35;;;;;;;16.70;3.40;;;11.90;99.90;;;;;;4993975;28;20157;-54
2022/11/06 10:55:46;;;;;;;12.80;3.53;;;12.00;99.90;;;;;;4986845;28;20119;-54
2022/11/06 10:58:18;;;;;;;9.40;2.97;;;11.70;99.90;;;;;;4967545;28;20039;-55
2022/11/06 11:00:44;;;;;;;6.82;2.45;;;11.70;99.90;;;;;;4993372;28;20105;-55
2022/11/06 11:03:29;;;;;;;5.93;2.85;;;11.70;99.90;;;;;;4985360;28;20532;-55
2022/11/06 11:05:54;;;;;;;8.75;3.35;;;11.70;99.90;;;;;;4993205;28;20468;-56
2022/11/06 11:08:36;;;;;;;6.43;2.90;;;11.70;99.90;;;;;;4991093;28;20026;-53
2022/11/06 11:11:14;;;;;;;19.55;3.15;;;11.90;99.90;;;;;;4990278;28;20113;-53
2022/11/06 11:13:40;;;;;;;5.93;3.15;;;11.80;99.90;;;;;;4990378;28;20022;-56
2022/11/06 11:16:34;;;;;;;7.78;2.92;;;11.80;99.90;;;;;;4993288;28;20052;-53
2022/11/06 11:19:36;;;;;;;11.25;2.30;;;11.90;99.90;;;;;;4985772;28;20048;-56
2022/11/06 11:22:18;;;;;;;5.15;3.03;;;11.80;99.90;;;;;;4990409;28;20027;-54
2022/11/06 11:25:02;;;;;;;12.10;2.67;;;11.90;99.90;;;;;;4987202;28;20034;-54
2022/11/06 11:27:43;;;;;;;12.57;2.88;;;11.80;99.90;;;;;;4991039;28;20022;-56
2022/11/06 11:30:38;;;;;;;11.32;2.50;;;11.80;99.90;;;;;;4991237;28;20041;-54
2022/11/06 11:33:12;;;;;;;12.40;2.45;;;11.80;99.90;;;;;;4973816;28;20111;-54
2022/11/06 11:35:38;;;;;;;6.03;2.33;;;11.80;99.90;;;;;;4994516;28;20034;-54
2022/11/06 11:38:09;;;;;;;8.18;2.47;;;11.90;99.90;;;;;;4987116;28;20341;-54
2022/11/06 11:40:38;;;;;;;6.43;2.85;;;12.00;99.90;;;;;;4992534;28;20096;-54
2022/11/06 11:43:27;;;;;;;14.18;2.70;;;12.00;99.90;;;;;;4983593;28;20027;-55
2022/11/06 11:46:02;;;;;;;6.65;2.65;;;12.10;99.90;;;;;;4974749;28;20030;-54
2022/11/06 11:48:39;;;;;;;5.82;2.63;;;12.10;99.90;;;;;;4990042;28;20022;-55
2022/11/06 11:51:34;;;;;;;6.88;2.60;;;12.20;99.90;;;;;;4988705;28;20460;-53
2022/11/06 11:54:11;;;;;;;8.70;2.53;;;12.20;99.90;;;;;;4989360;28;20427;-53
2022/11/06 11:56:45;;;;;;;7.43;2.35;;;12.30;99.90;;;;;;4997298;28;20476;-55
2022/11/06 11:59:18;;;;;;;15.13;2.93;;;12.40;99.90;;;;;;4992612;28;20030;-53
2022/11/06 12:01:44;;;;;;;4.47;2.42;;;12.50;99.90;;;;;;4992772;28;20026;-53
2022/11/06 12:04:21;;;;;;;9.07;2.30;;;12.90;99.90;;;;;;4988273;28;20043;-54
2022/11/06 12:06:57;;;;;;;6.05;2.25;;;13.40;99.90;;;;;;4983626;28;20030;-55
2022/11/06 12:09:24;;;;;;;9.45;2.22;;;13.90;99.90;;;;;;4991010;28;20022;-54
2022/11/06 12:11:53;;;;;;;6.90;2.88;;;14.20;99.90;;;;;;4991102;28;20380;-53
2022/11/06 12:14:21;;;;;;;8.93;3.70;;;14.40;99.90;;;;;;4989779;28;20045;-53
2022/11/06 12:16:54;;;;;;;6.18;2.22;;;14.30;99.90;;;;;;4983227;28;20050;-55
2022/11/06 12:19:21;;;;;;;5.72;1.77;;;13.90;99.90;;;;;;4979009;28;20023;-52
2022/11/06 12:21:56;;;;;;;5.65;1.80;;;13.70;99.90;;;;;;4988275;28;20022;-54
2022/11/06 12:24:29;;;;;;;12.57;2.38;;;13.70;99.90;;;;;;4989881;28;20077;-54
2022/11/06 12:27:01;;;;;;;7.72;1.63;;;13.60;99.90;;;;;;4989611;28;20088;-56
2022/11/06 12:29:55;;;;;;;14.40;2.85;;;13.50;99.90;;;;;;4979643;28;20089;-55
2022/11/06 12:32:33;;;;;;;8.00;1.98;;;13.70;99.90;;;;;;4983734;28;20022;-50
2022/11/06 12:35:25;;;;;;;5.53;2.00;;;13.90;99.90;;;;;;4982035;28;20584;-54
2022/11/06 12:38:18;;;;;;;8.55;1.60;;;14.10;99.90;;;;;;4980954;28;20037;-53
2022/11/06 12:40:54;;;;;;;7.18;2.00;;;14.20;99.90;;;;;;4985193;28;20373;-51
2022/11/06 12:43:35;;;;;;;4.22;1.40;;;14.30;99.90;;;;;;4983524;28;20396;-53
2022/11/06 12:46:25;;;;;;;3.90;1.63;;;14.40;99.90;;;;;;4991043;28;20045;-53
2022/11/06 12:49:00;;;;;;;9.63;2.60;;;14.30;99.90;;;;;;4983292;28;20033;-57
2022/11/06 12:51:44;;;;;;;;;;;14.20;99.90;;;;;;4985484;28;20034;-55
2022/11/06 12:54:27;;;;;;;6.95;1.83;;;14.10;99.90;;;;;;4989749;28;19953;-54
2022/11/06 12:57:30;;;;;;;5.20;1.83;;;14.00;99.90;;;;;;4989164;28;20026;-53
2022/11/06 13:00:15;;;;;;;3.75;1.52;;;13.90;99.90;;;;;;4988211;28;20025;-53
2022/11/06 13:02:43;;;;;;;;;;;13.90;99.90;;;;;;4992016;28;20026;-58
2022/11/06 13:05:26;;;;;;;4.22;1.88;;;13.70;99.90;;;;;;4995101;28;19910;-57
2022/11/06 13:08:07;;;;;;;5.55;1.60;;;13.50;99.90;;;;;;4990335;28;20139;-54
2022/11/06 13:10:41;;;;;;;3.90;1.30;;;13.50;99.90;;;;;;4988086;28;20018;-56
2022/11/06 13:13:21;;;;;;;8.20;1.85;;;13.30;99.90;;;;;;4994866;28;20373;-55
2022/11/06 13:16:07;;;;;;;4.25;1.42;;;13.30;99.90;;;;;;4993096;28;20033;-54
2022/11/06 13:18:47;;;;;;;7.18;1.65;;;13.30;99.90;;;;;;4974157;28;20019;-55
2022/11/06 13:21:18;;;;;;;3.55;1.30;;;13.30;99.90;;;;;;4978976;28;20033;-54
2022/11/06 13:23:49;;;;;;;5.55;1.95;;;13.20;99.90;;;;;;4989886;28;20392;-55
2022/11/06 13:26:23;;;;;;;12.88;1.58;;;13.20;99.90;;;;;;4990439;28;20019;-52